Time;durP1;ratioP1;P1;durP2;ratioP2;P2;SDS_P1;SDS_P2;PMS_P1;PMS_P2;Temp;Humidity;BMP_temperature;BMP_pressure;BME280_temperature;BME280_humidity;BME280_pressure;Samples;Min_cycle;Max_cycle;Signal;HPM_P1;HPM_P2
2022/09/25 03:01:58;;;;;;;;;;;12.30;99.90;;;;;;5547246;23;19929;-68
2022/09/25 03:04:26;;;;;;;;;;;12.30;99.90;;;;;;5015401;28;19976;-70
2022/09/25 03:06:53;;;;;;;;;;;12.30;99.90;;;;;;5018065;28;19925;-68
2022/09/25 03:09:21;;;;;;;;;;;12.30;99.90;;;;;;5018063;28;19961;-69
2022/09/25 03:11:48;;;;;;;;;;;12.30;99.90;;;;;;5015944;28;19956;-68
2022/09/25 03:14:15;;;;;;;;;;;12.30;99.90;;;;;;4997594;28;19971;-69
2022/09/25 03:16:45;;;;;;;;;;;12.20;99.90;;;;;;4990993;28;20016;-68
2022/09/25 03:19:14;;;;;;;;;;;12.20;99.90;;;;;;4983353;28;19984;-68
2022/09/25 03:21:40;;;;;;;;;;;12.20;99.90;;;;;;5001459;28;19933;-68
2022/09/25 03:24:07;;;;;;;;;;;12.30;99.90;;;;;;5004109;28;19932;-70
2022/09/25 03:26:34;;;;;;;;;;;12.20;99.90;;;;;;5009003;28;20342;-68
2022/09/25 03:29:01;;;;;;;;;;;12.30;99.90;;;;;;5002136;28;19945;-68
2022/09/25 03:31:28;;;;;;;;;;;12.20;99.90;;;;;;4997401;28;20300;-68
2022/09/25 03:33:55;;;;;;;;;;;12.20;99.90;;;;;;5006740;28;19931;-68
2022/09/25 03:36:24;;;;;;;;;;;12.20;99.90;;;;;;5012802;28;19925;-68
2022/09/25 03:38:53;;;;;;;;;;;12.20;99.90;;;;;;5009345;28;19925;-69
2022/09/25 03:41:20;;;;;;;;;;;12.20;99.90;;;;;;5010397;28;19972;-68
2022/09/25 03:43:50;;;;;;;;;;;12.20;99.90;;;;;;5012335;28;19933;-68
2022/09/25 03:46:18;;;;;;;;;;;12.20;99.90;;;;;;5013078;28;19925;-68
2022/09/25 03:48:45;;;;;;;;;;;12.20;99.90;;;;;;5012686;28;19984;-69
2022/09/25 03:51:12;;;;;;;;;;;12.20;99.90;;;;;;5010063;28;20160;-68
2022/09/25 03:53:40;;;;;;;;;;;12.20;99.90;;;;;;5007841;28;19952;-70
2022/09/25 03:56:08;;;;;;;;;;;12.20;99.90;;;;;;5011329;28;19925;-68
2022/09/25 03:58:35;;;;;;;;;;;12.20;99.90;;;;;;5010056;28;19925;-69
2022/09/25 04:01:02;;;;;;;;;;;12.20;99.90;;;;;;5012177;28;19937;-68
2022/09/25 04:03:29;;;;;;;;;;;12.20;99.90;;;;;;5009330;28;19932;-68
2022/09/25 04:05:57;;;;;;;;;;;12.10;99.90;;;;;;5014081;28;19925;-68
2022/09/25 04:08:25;;;;;;;;;;;12.10;99.90;;;;;;5010558;28;19975;-69
2022/09/25 04:10:55;;;;;;;;;;;12.20;99.90;;;;;;5003906;28;19929;-68
2022/09/25 04:13:21;;;;;;;;;;;12.10;99.90;;;;;;5013791;28;19935;-68
2022/09/25 04:15:48;;;;;;;;;;;12.10;99.90;;;;;;5009003;28;20355;-68
2022/09/25 04:18:15;;;;;;;;;;;12.10;99.90;;;;;;5015316;28;19925;-68
2022/09/25 04:20:42;;;;;;;;;;;12.10;99.90;;;;;;5010377;28;19925;-68
2022/09/25 04:23:09;;;;;;;;;;;12.10;99.90;;;;;;5011848;28;19929;-69
2022/09/25 04:25:35;;;;;;;;;;;12.10;99.90;;;;;;5008599;28;19925;-68
2022/09/25 04:28:05;;;;;;;;;;;12.10;99.90;;;;;;5005579;28;19929;-68
2022/09/25 04:30:32;;;;;;;;;;;12.10;99.90;;;;;;5011830;28;19926;-68
2022/09/25 04:35:44;;;;;;;;;;;12.10;99.90;;;;;;5014852;28;19925;-68
2022/09/25 04:38:11;;;;;;;;;;;12.00;99.90;;;;;;5001752;28;19933;-69
2022/09/25 04:40:38;;;;;;;;;;;12.00;99.90;;;;;;5010379;28;20307;-68
2022/09/25 04:43:06;;;;;;;;;;;12.00;99.90;;;;;;5010723;28;20366;-68
2022/09/25 04:45:34;;;;;;;;;;;12.00;99.90;;;;;;5011816;28;20292;-68
2022/09/25 04:48:02;;;;;;;;;;;11.90;99.90;;;;;;5013933;28;19980;-69
2022/09/25 04:50:29;;;;;;;;;;;11.90;99.90;;;;;;5008940;28;20372;-67
2022/09/25 04:53:01;;;;;;;;;;;11.90;99.90;;;;;;5012613;28;19925;-68
2022/09/25 04:55:28;;;;;;;;;;;11.80;99.90;;;;;;5008191;28;19933;-68
2022/09/25 04:57:56;;;;;;;;;;;11.80;99.90;;;;;;5012435;28;19925;-68
2022/09/25 05:00:25;;;;;;;;;;;11.80;99.90;;;;;;5009531;28;19925;-68
2022/09/25 05:02:52;;;;;;;;;;;11.80;99.90;;;;;;4996513;28;20302;-69
2022/09/25 05:05:19;;;;;;;;;;;11.70;99.90;;;;;;4999357;28;19930;-68
2022/09/25 05:07:53;;;;;;;;;;;11.70;99.90;;;;;;4998947;28;19930;-68
2022/09/25 05:10:20;;;;;;;;;;;11.70;99.90;;;;;;5010499;28;19926;-68
2022/09/25 05:12:47;;;;;;;;;;;11.70;99.90;;;;;;5005940;28;19933;-68
2022/09/25 05:15:14;;;;;;;;;;;11.60;99.90;;;;;;5013950;28;20028;-69
2022/09/25 05:17:43;;;;;;;;;;;11.60;99.90;;;;;;5006147;28;19926;-68
2022/09/25 05:20:10;;;;;;;;;;;11.70;99.90;;;;;;5000068;28;20028;-69
2022/09/25 05:22:36;;;;;;;;;;;11.70;99.90;;;;;;5007119;28;20020;-67
2022/09/25 05:25:03;;;;;;;;;;;11.70;99.90;;;;;;5007010;28;19960;-68
2022/09/25 05:27:32;;;;;;;;;;;11.70;99.90;;;;;;5004069;28;20382;-68
2022/09/25 05:29:58;;;;;;;;;;;11.70;99.90;;;;;;4993028;28;19925;-68
2022/09/25 05:32:25;;;;;;;;;;;11.60;99.90;;;;;;4994436;28;19932;-68
2022/09/25 05:34:53;;;;;;;;;;;11.60;99.90;;;;;;4992721;28;19925;-67
2022/09/25 05:37:20;;;;;;;;;;;11.60;99.90;;;;;;4997936;28;20281;-68
2022/09/25 05:39:47;;;;;;;;;;;11.50;99.90;;;;;;4996488;28;19937;-68
2022/09/25 05:42:18;;;;;;;;;;;11.50;99.90;;;;;;4997027;28;19929;-67
2022/09/25 05:44:45;;;;;;;;;;;11.50;99.90;;;;;;4999286;28;19956;-68
2022/09/25 05:47:11;;;;;;;;;;;11.50;99.90;;;;;;4999708;28;19933;-69
2022/09/25 05:49:38;;;;;;;;;;;11.50;99.90;;;;;;4992711;28;19929;-68
2022/09/25 05:52:06;;;;;;;;;;;11.50;99.90;;;;;;4994832;28;19937;-68
2022/09/25 05:54:33;;;;;;;;;;;11.50;99.90;;;;;;4999474;28;19925;-68
2022/09/25 05:57:00;;;;;;;;;;;11.50;99.90;;;;;;4999832;28;19925;-68
2022/09/25 05:59:26;;;;;;;;;;;11.40;99.90;;;;;;4990186;28;19930;-68
2022/09/25 06:01:53;;;;;;;;;;;11.40;99.90;;;;;;4986883;28;19929;-67
2022/09/25 06:04:20;;;;;;;;;;;11.50;99.90;;;;;;4984184;28;19930;-68
2022/09/25 06:06:47;;;;;;;;;;;11.50;99.90;;;;;;4993663;28;19933;-68
2022/09/25 06:09:15;;;;;;;;;;;11.60;99.90;;;;;;4995409;28;19925;-69
2022/09/25 06:11:46;;;;;;;;;;;11.60;99.90;;;;;;4994501;28;19925;-68
2022/09/25 06:14:13;;;;;;;;;;;11.70;99.90;;;;;;4991713;28;19930;-69
2022/09/25 06:16:39;;;;;;;;;;;11.70;99.90;;;;;;4993178;28;19972;-76
2022/09/25 06:19:06;;;;;;;;;;;11.80;99.90;;;;;;4993549;28;19929;-67
2022/09/25 06:21:33;;;;;;;;;;;11.80;99.90;;;;;;4994191;28;19925;-67
2022/09/25 06:24:00;;;;;;;;;;;11.90;99.90;;;;;;4985320;28;19930;-68
2022/09/25 06:26:28;;;;;;;;;;;12.00;99.90;;;;;;4985154;28;20414;-67
2022/09/25 06:28:55;;;;;;;;;;;12.00;99.90;;;;;;4990842;28;19933;-68
2022/09/25 06:31:22;;;;;;;;;;;12.00;99.90;;;;;;4997190;28;19953;-69
2022/09/25 06:33:50;;;;;;;;;;;12.00;99.90;;;;;;5002132;28;19929;-69
2022/09/25 06:36:16;;;;;;;;;;;12.10;99.90;;;;;;5012102;28;20354;-69
2022/09/25 06:38:43;;;;;;;;;;;12.10;99.90;;;;;;5003534;28;19930;-69
2022/09/25 06:41:10;;;;;;;;;;;12.10;99.90;;;;;;4998097;28;19930;-69
2022/09/25 06:43:38;;;;;;;;;;;12.20;99.90;;;;;;5004720;28;19979;-68
2022/09/25 06:46:05;;;;;;;;;;;12.30;99.90;;;;;;4999169;28;19934;-68
2022/09/25 06:48:32;;;;;;;;;;;12.40;99.90;;;;;;5001544;28;19932;-68
2022/09/25 06:51:00;;;;;;;;;;;12.40;99.90;;;;;;4997480;28;20399;-69
2022/09/25 06:53:27;;;;;;;;;;;12.40;99.90;;;;;;5008514;28;20009;-69
2022/09/25 06:55:56;;;;;;;;;;;12.50;99.90;;;;;;4998594;28;19925;-69
2022/09/25 06:58:24;;;;;;;;;;;12.60;99.90;;;;;;4988791;28;19930;-68
2022/09/25 07:00:53;;;;;;;;;;;12.70;99.90;;;;;;4997402;28;19925;-69
2022/09/25 07:06:05;;;;;;;;;;;12.60;99.90;;;;;;4999286;28;19956;-69
2022/09/25 07:08:32;;;;;;;;;;;12.50;99.90;;;;;;4987426;28;20339;-69
2022/09/25 07:11:00;;;;;;;;;;;12.50;99.90;;;;;;4987706;28;19932;-69
2022/09/25 07:13:28;;;;;;;;;;;12.40;99.90;;;;;;5004313;28;19925;-68
2022/09/25 07:15:57;;;;;;;;;;;12.30;99.90;;;;;;4998345;28;19964;-69
2022/09/25 07:18:25;;;;;;;;;;;12.20;99.90;;;;;;4995827;28;20348;-67
2022/09/25 07:20:52;;;;;;;;;;;12.10;99.90;;;;;;5000345;28;19932;-68
2022/09/25 07:23:21;;;;;;;;;;;12.00;99.90;;;;;;4998054;28;19932;-68
2022/09/25 07:25:48;;;;;;;;;;;12.00;99.90;;;;;;5005313;28;19933;-67
2022/09/25 07:28:15;;;;;;;;;;;12.00;99.90;;;;;;5011241;28;19925;-69
2022/09/25 07:30:42;;;;;;;;;;;12.00;99.90;;;;;;5003363;28;19925;-68
2022/09/25 07:33:11;;;;;;;;;;;11.90;99.90;;;;;;5008203;28;19929;-68
2022/09/25 07:35:38;;;;;;;;;;;11.90;99.90;;;;;;5006278;28;20307;-69
2022/09/25 07:38:05;;;;;;;;;;;11.90;99.90;;;;;;5011203;28;20304;-69
2022/09/25 07:40:34;;;;;;;;;;;12.00;99.90;;;;;;5008561;28;19933;-68
2022/09/25 07:43:00;;;;;;;;;;;12.00;99.90;;;;;;4998510;28;20288;-68
2022/09/25 07:45:27;;;;;;;;;;;12.10;99.90;;;;;;5010332;28;19980;-69
2022/09/25 07:47:55;;;;;;;;;;;12.10;99.90;;;;;;5001897;28;19990;-69
2022/09/25 07:50:23;;;;;;;;;;;12.20;99.90;;;;;;5004170;28;19925;-69
2022/09/25 07:52:50;;;;;;;;;;;12.20;99.90;;;;;;5006945;28;19924;-68
2022/09/25 07:55:17;;;;;;;;;;;12.20;99.90;;;;;;5012360;28;19925;-68
2022/09/25 07:57:44;;;;;;;;;;;12.20;99.90;;;;;;5009000;28;20396;-69
2022/09/25 08:00:11;;;;;;;;;;;12.20;99.90;;;;;;4993075;28;19925;-68
2022/09/25 08:02:42;;;;;;;;;;;12.20;99.90;;;;;;5007283;28;19930;-69
2022/09/25 08:05:10;;;;;;;;;;;12.30;99.90;;;;;;5008228;28;19928;-68
2022/09/25 08:07:38;;;;;;;;;;;12.40;99.90;;;;;;5007957;28;20008;-68
2022/09/25 08:10:05;;;;;;;;;;;12.50;99.90;;;;;;5008441;28;19925;-70
2022/09/25 08:12:32;;;;;;;;;;;12.60;99.90;;;;;;5005467;28;19987;-68
2022/09/25 08:14:59;;;;;;;;;;;12.70;99.90;;;;;;5007363;28;20377;-68
2022/09/25 08:17:30;;;;;;;;;;;12.80;99.90;;;;;;5003600;28;19926;-69
2022/09/25 08:19:57;;;;;;;;;;;13.00;99.90;;;;;;5006332;28;19926;-68
2022/09/25 08:22:23;;;;;;;;;;;13.00;99.90;;;;;;4998917;28;19930;-68
2022/09/25 08:24:52;;;;;;;;;;;13.00;99.90;;;;;;5003379;28;19933;-68
2022/09/25 08:27:18;;;;;;;;;;;13.00;99.90;;;;;;5011464;28;19926;-69
2022/09/25 08:29:45;;;;;;;;;;;13.20;99.90;;;;;;5012601;28;19929;-68
2022/09/25 08:32:12;;;;;;;;;;;13.20;99.90;;;;;;5005764;28;19929;-67
2022/09/25 08:34:41;;;;;;;;;;;13.30;99.90;;;;;;5012604;28;20355;-68
2022/09/25 08:37:08;;;;;;;;;;;13.30;99.90;;;;;;5007759;28;19925;-69
2022/09/25 08:39:35;;;;;;;;;;;13.50;99.90;;;;;;5012662;28;19925;-69
2022/09/25 08:42:03;;;;;;;;;;;13.60;99.90;;;;;;5010171;28;19933;-67
2022/09/25 08:44:31;;;;;;;;;;;13.70;99.90;;;;;;5011849;28;20354;-68
2022/09/25 08:49:45;;;;;;;;;;;13.80;99.90;;;;;;5009356;28;19921;-68
2022/09/25 08:52:13;;;;;;;;;;;14.00;99.90;;;;;;5001048;28;19980;-68
2022/09/25 08:54:40;;;;;;;;;;;14.00;99.90;;;;;;4998644;28;19929;-67
2022/09/25 08:57:12;;;;;;;;;;;14.10;99.90;;;;;;5013829;28;20303;-67
2022/09/25 08:59:41;;;;;;;;;;;14.20;99.90;;;;;;5006298;28;19930;-68
2022/09/25 09:02:13;;;;;;;;;;;14.40;99.90;;;;;;5006823;28;19925;-69
2022/09/25 09:04:42;;;;;;;;;;;14.60;99.90;;;;;;5007002;28;19926;-71
2022/09/25 09:07:11;;;;;;;;;;;14.70;99.90;;;;;;4995373;28;19933;-65
2022/09/25 09:09:40;;;;;;;;;;;15.00;99.90;;;;;;4990618;28;19985;-67
2022/09/25 09:12:10;;;;;;;;;;;15.20;99.90;;;;;;5006431;28;20374;-69
2022/09/25 09:14:42;;;;;;;;;;;15.40;99.90;;;;;;5005855;28;20024;-72
2022/09/25 09:17:18;;;;;;;;;;;15.30;99.90;;;;;;5002509;28;19940;-67
2022/09/25 09:19:50;;;;;;;;;;;15.30;99.90;;;;;;4993513;28;19949;-68
2022/09/25 09:22:20;;;;;;;;;;;15.20;99.90;;;;;;4994411;28;19925;-68
2022/09/25 09:24:54;;;;;;;;;;;15.40;99.90;;;;;;5003617;28;19929;-73
2022/09/25 09:27:28;;;;;;;;;;;15.50;99.90;;;;;;5001297;28;20012;-67
2022/09/25 09:30:01;;;;;;;;;;;15.70;99.90;;;;;;5008906;28;19925;-68
2022/09/25 09:32:43;;;;;;;;;;;15.70;99.90;;;;;;5005300;28;19930;-68
2022/09/25 09:35:15;;;;;;;;;;;15.90;99.90;;;;;;4989274;28;19932;-67
2022/09/25 09:37:51;;;;;;;;;;;15.90;99.90;;;;;;5008373;28;20012;-68
2022/09/25 09:40:21;;;;;;;;;;;16.00;99.90;;;;;;4978896;28;19930;-68
2022/09/25 09:42:53;;;;;;;;;;;16.10;99.90;;;;;;5005169;28;19930;-69
2022/09/25 09:45:23;;;;;;;;;;;16.30;99.90;;;;;;5003613;28;20330;-68
2022/09/25 09:47:53;;;;;;;;;;;16.30;99.90;;;;;;5011883;28;19925;-69
2022/09/25 09:50:24;;;;;;;;;;;16.60;99.90;;;;;;5007898;28;19937;-69
2022/09/25 09:52:54;;;;;;;;;;;16.40;99.90;;;;;;5005788;28;19933;-69
2022/09/25 09:55:23;;;;;;;;;;;16.20;99.90;;;;;;5013115;28;19925;-69
2022/09/25 09:57:52;;;;;;;;;;;16.40;99.90;;;;;;5004288;28;19925;-68
2022/09/25 10:00:20;;;;;;;;;;;16.40;99.90;;;;;;5009083;28;19933;-69
2022/09/25 10:02:50;;;;;;;;;;;16.50;99.90;;;;;;5007474;28;19933;-69
2022/09/25 10:05:20;;;;;;;;;;;16.70;99.90;;;;;;5010139;28;19936;-69
2022/09/25 10:07:47;;;;;;;;;;;17.10;99.90;;;;;;5012500;28;19929;-67
2022/09/25 10:10:15;;;;;;;;;;;17.30;99.90;;;;;;5004622;28;19925;-68
2022/09/25 10:12:44;;;;;;;;;;;17.50;99.90;;;;;;5007146;28;19968;-68
2022/09/25 10:15:16;;;;;;;;;;;17.50;99.90;;;;;;5006529;28;20007;-69
2022/09/25 10:17:43;;;;;;;;;;;17.50;99.90;;;;;;5011537;28;19929;-67
2022/09/25 10:20:14;;;;;;;;;;;17.40;99.90;;;;;;5007522;28;19972;-69
2022/09/25 10:22:43;;;;;;;;;;;17.50;99.90;;;;;;4995837;28;19933;-68
2022/09/25 10:25:10;;;;;;;;;;;17.60;99.90;;;;;;4999211;28;19957;-69
2022/09/25 10:27:40;;;;;;;;;;;17.80;99.90;;;;;;5009306;28;20342;-69
2022/09/25 10:30:13;;;;;;;;;;;18.10;99.90;;;;;;5010121;28;19925;-68
2022/09/25 10:32:44;;;;;;;;;;;18.50;99.90;;;;;;4991955;28;20008;-68
2022/09/25 10:35:16;;;;;;;;;;;18.70;99.90;;;;;;4994356;28;19933;-67
2022/09/25 10:37:43;;;;;;;;;;;18.40;99.90;;;;;;5011104;28;19976;-75
2022/09/25 10:40:22;;;;;;;;;;;18.20;99.90;;;;;;4995152;28;19929;-69
2022/09/25 10:42:49;;;;;;;;;;;18.30;99.90;;;;;;5000061;28;19925;-74
2022/09/25 10:45:26;;;;;;;;;;;18.50;99.90;;;;;;5008489;28;19933;-73
2022/09/25 10:50:38;;;;;;;;;;;18.90;99.90;;;;;;5004398;28;20311;-69
2022/09/25 10:53:06;;;;;;;;;;;18.70;99.90;;;;;;5007760;28;19933;-70
2022/09/25 10:55:34;;;;;;;;;;;18.80;99.90;;;;;;5008194;28;19931;-71
2022/09/25 10:58:05;;;;;;;;;;;18.40;99.90;;;;;;4993120;28;19925;-69
2022/09/25 11:00:36;;;;;;;;;;;18.10;99.90;;;;;;4998187;28;19925;-69
2022/09/25 11:03:05;;;;;;;;;;;18.20;99.90;;;;;;5003523;28;19928;-70
2022/09/25 11:05:34;;;;;;;;;;;18.30;99.90;;;;;;5006014;28;20082;-70
2022/09/25 11:08:01;;;;;;;;;;;18.30;99.90;;;;;;4997231;28;19925;-68
2022/09/25 11:10:29;;;;;;;;;;;18.40;99.90;;;;;;4992561;28;19936;-73
2022/09/25 11:12:57;;;;;;;;;;;19.00;99.90;;;;;;5002450;28;19933;-75
2022/09/25 11:15:26;;;;;;;;;;;19.70;99.90;;;;;;5007194;28;20339;-75
2022/09/25 11:17:53;;;;;;;;;;;22.60;99.90;;;;;;5007417;28;19972;-66
2022/09/25 11:20:28;;;;;;;;;;;27.50;99.90;;;;;;5003632;28;19965;-66
2022/09/25 11:23:03;;;;;;;;;;;31.00;99.90;;;;;;4997171;28;20319;-67
2022/09/25 11:25:34;;;;;;;;;;;29.70;99.90;;;;;;5000778;28;19925;-66
2022/09/25 11:28:05;;;;;;;;;;;25.40;99.90;;;;;;5009870;28;19929;-66
2022/09/25 11:30:38;;;;;;;;;;;26.30;99.90;;;;;;5008767;28;19926;-66
2022/09/25 11:33:11;;;;;;;;;;;28.20;99.90;;;;;;5006712;28;19931;-67
2022/09/25 11:35:45;;;;;;;;;;;27.20;99.90;;;;;;5000602;28;19953;-67
2022/09/25 11:38:17;;;;;;;;;;;27.50;99.90;;;;;;4994243;28;19926;-67
2022/09/25 11:43:42;;;;;;;;;;;30.90;99.90;;;;;;5002746;28;19925;-67
2022/09/25 11:46:22;;;;;;;;;;;28.90;99.90;;;;;;5012108;28;19929;-66
2022/09/25 11:48:53;;;;;;;;;;;27.20;99.90;;;;;;5005519;28;19937;-66
2022/09/25 11:51:28;;;;;;;;;;;28.10;99.90;;;;;;5002985;28;19925;-66
2022/09/25 11:54:01;;;;;;;;;;;30.30;99.90;;;;;;5003637;28;19971;-66
2022/09/25 11:56:31;;;;;;;;;;;31.20;99.90;;;;;;5002331;28;19925;-66
2022/09/25 11:59:05;;;;;;;;;;;32.90;99.90;;;;;;5009275;28;19932;-66
2022/09/25 12:01:34;;;;;;;;;;;32.40;99.90;;;;;;5000014;28;19930;-67
2022/09/25 12:04:12;;;;;;;;;;;34.40;99.90;;;;;;5000418;28;19926;-67
2022/09/25 12:06:54;;;;;;;;;;;35.20;99.90;;;;;;5006788;28;19980;-67
2022/09/25 12:09:32;;;;;;;;;;;33.40;99.90;;;;;;4996470;28;19926;-67
2022/09/25 12:12:01;;;;;;;;;;;34.40;99.90;;;;;;4994929;28;19977;-70
2022/09/25 12:14:32;;;;;;;;;;;34.80;99.90;;;;;;5002566;28;20428;-74
2022/09/25 12:17:02;;;;;;;;;;;34.60;99.90;;;;;;5007314;28;20347;-68
2022/09/25 12:19:34;;;;;;;;;;;34.90;99.90;;;;;;5012255;28;19999;-67
2022/09/25 12:22:06;;;;;;;;;;;34.40;99.90;;;;;;5009617;28;19983;-68
2022/09/25 12:24:39;;;;;;;;;;;34.80;99.90;;;;;;5005153;28;19931;-68
2022/09/25 12:27:09;;;;;;;;;;;30.80;99.90;;;;;;5006343;28;19960;-67
2022/09/25 12:29:45;;;;;;;;;;;30.00;99.90;;;;;;5008791;28;19929;-68
2022/09/25 12:32:17;;;;;;;;;;;32.40;99.90;;;;;;4999862;28;19976;-69
2022/09/25 12:34:51;;;;;;;;;;;33.90;99.90;;;;;;4998132;28;19925;-69
2022/09/25 12:37:25;;;;;;;;;;;34.10;99.90;;;;;;5002514;28;19926;-69
2022/09/25 12:39:53;;;;;;;;;;;34.30;99.90;;;;;;5012495;28;20354;-69
2022/09/25 12:42:22;;;;;;;;;;;34.10;99.90;;;;;;5009696;28;19930;-70
2022/09/25 12:44:51;;;;;;;;;;;31.00;99.90;;;;;;5010678;28;19979;-69
2022/09/25 12:47:23;;;;;;;;;;;29.10;99.90;;;;;;5011897;28;19929;-69
2022/09/25 12:49:51;;;;;;;;;;;26.80;99.90;;;;;;5002563;28;20344;-69
2022/09/25 12:52:22;;;;;;;;;;;25.10;99.90;;;;;;5010865;28;19980;-69
2022/09/25 12:54:53;;;;;;;;;;;23.90;99.90;;;;;;4990991;28;20347;-70
2022/09/25 12:57:24;;;;;;;;;;;22.80;99.90;;;;;;5003475;28;19929;-68
2022/09/25 12:59:53;;;;;;;;;;;23.00;99.90;;;;;;5006889;28;19930;-69
2022/09/25 13:02:22;;;;;;;;;;;25.40;99.90;;;;;;5007900;28;19937;-70
2022/09/25 13:04:55;;;;;;;;;;;27.40;99.90;;;;;;5006829;28;19929;-69
2022/09/25 13:07:26;;;;;;;;;;;28.60;99.90;;;;;;4984851;28;19933;-69
2022/09/25 13:09:53;;;;;;;;;;;29.20;99.90;;;;;;5000042;28;19973;-69
2022/09/25 13:12:25;;;;;;;;;;;28.30;99.90;;;;;;4999201;28;19925;-70
2022/09/25 13:14:54;;;;;;;;;;;28.90;99.90;;;;;;4996416;28;19933;-69
2022/09/25 13:17:21;;;;;;;;;;;29.30;99.90;;;;;;5002046;28;19926;-69
2022/09/25 13:19:48;;;;;;;;;;;28.50;99.90;;;;;;5001009;28;19925;-70
2022/09/25 13:22:20;;;;;;;;;;;26.70;99.90;;;;;;5005806;28;20280;-69
2022/09/25 13:24:51;;;;;;;;;;;25.30;99.90;;;;;;4998405;28;20364;-70
2022/09/25 13:27:21;;;;;;;;;;;25.30;99.90;;;;;;4991103;28;19979;-67
2022/09/25 13:29:53;;;;;;;;;;;25.10;99.90;;;;;;5006951;28;20372;-67
2022/09/25 13:32:21;;;;;;;;;;;24.20;99.90;;;;;;5000590;28;19929;-67
2022/09/25 13:34:51;;;;;;;;;;;23.80;99.90;;;;;;4990722;28;19935;-67
2022/09/25 13:37:18;;;;;;;;;;;24.50;99.90;;;;;;4990584;28;19925;-67
2022/09/25 13:42:36;;;;;;;;;;;24.80;99.90;;;;;;5004826;28;19925;-70
2022/09/25 13:45:18;;;;;;;;;;;23.50;99.90;;;;;;5000433;28;19929;-68
2022/09/25 13:47:51;;;;;;;;;;;22.30;99.90;;;;;;5002611;28;20340;-67
2022/09/25 13:50:21;;;;;;;;;;;21.20;99.90;;;;;;5005821;28;19933;-68
2022/09/25 13:53:16;;;;;;;;;;;20.40;99.90;;;;;;5006985;28;20350;-67
2022/09/25 13:55:41;;;;;;;;;;;20.10;99.90;;;;;;5003001;28;19948;-68
2022/09/25 13:58:17;;;;;;;;;;;19.80;99.90;;;;;;5008735;28;19925;-67
2022/09/25 14:00:56;;;;;;;;;;;19.70;99.90;;;;;;5006499;28;19926;-67
2022/09/25 14:03:30;;;;;;;;;;;20.60;99.90;;;;;;5000886;28;19931;-67
2022/09/25 14:05:57;;;;;;;;;;;22.90;99.90;;;;;;5003496;28;19925;-69
2022/09/25 14:08:25;;;;;;;;;;;24.90;99.90;;;;;;5003672;28;19929;-69
2022/09/25 14:10:54;;;;;;;;;;;26.30;99.90;;;;;;5007225;28;20273;-69
2022/09/25 14:13:24;;;;;;;;;;;27.10;99.90;;;;;;5003469;28;19932;-69
2022/09/25 14:15:51;;;;;;;;;;;27.50;99.90;;;;;;5010542;28;19931;-69
2022/09/25 14:18:19;;;;;;;;;;;28.20;99.90;;;;;;5001563;28;19926;-69
2022/09/25 14:20:49;;;;;;;;;;;28.70;99.90;;;;;;5006115;28;19935;-68
2022/09/25 14:23:22;;;;;;;;;;;28.50;99.90;;;;;;5004580;28;19929;-69
2022/09/25 14:25:56;;;;;;;;;;;28.20;99.90;;;;;;5001914;28;19925;-68
2022/09/25 14:28:25;;;;;;;;;;;28.60;99.90;;;;;;5013274;28;19979;-68
2022/09/25 14:30:56;;;;;;;;;;;28.90;99.90;;;;;;5007297;28;19929;-68
2022/09/25 14:33:37;;;;;;;;;;;29.00;99.90;;;;;;4989056;28;20422;-68
2022/09/25 14:36:08;;;;;;;;;;;29.40;99.90;;;;;;4999806;28;19933;-68
2022/09/25 14:38:49;;;;;;;;;;;29.10;99.90;;;;;;4988696;28;19930;-68
2022/09/25 14:41:28;;;;;;;;;;;28.80;99.90;;;;;;5000989;28;20020;-68
2022/09/25 14:44:03;;;;;;;;;;;28.80;99.90;;;;;;4995954;28;19925;-68
2022/09/25 14:46:32;;;;;;;;;;;28.80;99.90;;;;;;5009503;28;19933;-69
2022/09/25 14:49:01;;;;;;;;;;;27.90;99.90;;;;;;5003682;28;20384;-68
2022/09/25 14:51:33;;;;;;;;;;;28.20;99.90;;;;;;5004961;28;20418;-69
2022/09/25 14:54:02;;;;;;;;;;;28.20;99.90;;;;;;5006411;28;20419;-68
2022/09/25 14:56:33;;;;;;;;;;;28.10;99.90;;;;;;5008529;28;19932;-69
2022/09/25 14:59:03;;;;;;;;;;;28.00;99.90;;;;;;5009551;28;20392;-69
2022/09/25 15:01:31;;;;;;;;;;;29.00;99.90;;;;;;5024265;22;19924;-69
2022/09/25 15:03:59;;;;;;;;;;;29.20;99.90;;;;;;5039591;28;19963;-68
2022/09/25 15:06:27;;;;;;;;;;;29.00;99.90;;;;;;5026336;28;19976;-69
2022/09/25 15:08:54;;;;;;;;;;;28.90;99.90;;;;;;5040696;28;19932;-70
2022/09/25 15:11:21;;;;;;;;;;;28.30;99.90;;;;;;5026712;28;19926;-69
2022/09/25 15:13:48;;;;;;;;;;;27.90;99.90;;;;;;5022665;28;19976;-70
2022/09/25 15:19:03;;;;;;;;;;;27.80;99.90;;;;;;5013073;28;19934;-69
2022/09/25 15:21:30;;;;;;;;;;;26.40;99.90;;;;;;5009691;28;19929;-71
2022/09/25 15:23:58;;;;;;;;;;;26.20;99.90;;;;;;5019019;28;19932;-70
2022/09/25 15:26:27;;;;;;;;;;;26.50;99.90;;;;;;5012184;28;20343;-69
2022/09/25 15:28:53;;;;;;;;;;;27.40;99.90;;;;;;5014716;28;20372;-69
2022/09/25 15:31:21;;;;;;;;;;;27.40;99.90;;;;;;5021311;28;19969;-72
2022/09/25 15:34:01;;;;;;;;;;;27.30;99.90;;;;;;5017101;28;20026;-69
2022/09/25 15:36:27;;;;;;;;;;;27.30;99.90;;;;;;5017781;28;19932;-69
2022/09/25 15:38:55;;;;;;;;;;;27.10;99.90;;;;;;5019267;28;20130;-70
2022/09/25 15:41:22;;;;;;;;;;;27.20;99.90;;;;;;5007733;28;20038;-69
2022/09/25 15:43:50;;;;;;;;;;;27.20;99.90;;;;;;5015866;28;19933;-69
2022/09/25 15:46:34;;;;;;;;;;;26.40;99.90;;;;;;5003737;28;20385;-69
2022/09/25 15:49:01;;;;;;;;;;;25.90;99.90;;;;;;5018080;28;19972;-70
2022/09/25 15:51:32;;;;;;;;;;;25.90;99.90;;;;;;5015576;28;19932;-68
2022/09/25 15:53:59;;;;;;;;;;;25.90;99.90;;;;;;5024391;28;19925;-68
2022/09/25 15:56:27;;;;;;;;;;;25.70;99.90;;;;;;5023234;28;20027;-69
2022/09/25 15:58:55;;;;;;;;;;;25.60;99.90;;;;;;5021276;28;19964;-69
2022/09/25 16:06:57;;;;;;;;;;;24.60;99.90;;;;;;5019192;28;19929;-69
2022/09/25 16:09:29;;;;;;;;;;;23.90;99.90;;;;;;5017397;28;20354;-69
2022/09/25 16:12:10;;;;;;;;;;;23.60;99.90;;;;;;5023463;28;19925;-69
2022/09/25 16:14:36;;;;;;;;;;;23.00;99.90;;;;;;5016339;28;19979;-68
2022/09/25 16:17:03;;;;;;;;;;;22.50;99.90;;;;;;5022577;28;20032;-68
2022/09/25 16:19:33;;;;;;;;;;;22.50;99.90;;;;;;5018085;28;20028;-67
2022/09/25 16:22:11;;;;;;;;;;;22.00;99.90;;;;;;5010483;28;19925;-68
2022/09/25 16:24:39;;;;;;;;;;;21.10;99.90;;;;;;5019397;28;19933;-69
2022/09/25 16:27:06;;;;;;;;;;;20.40;99.90;;;;;;5023194;28;19930;-68
2022/09/25 16:29:34;;;;;;;;;;;20.00;99.90;;;;;;5018020;28;19929;-68
2022/09/25 16:32:02;;;;;;;;;;;19.60;99.90;;;;;;5017172;28;19925;-70
2022/09/25 16:34:30;;;;;;;;;;;19.50;99.90;;;;;;5020250;28;20312;-68
2022/09/25 16:36:59;;;;;;;;;;;19.10;99.90;;;;;;5019058;28;19925;-68
2022/09/25 16:39:28;;;;;;;;;;;19.00;99.90;;;;;;5022140;28;19929;-69
2022/09/25 16:41:55;;;;;;;;;;;18.80;99.90;;;;;;5019507;28;19925;-71
2022/09/25 16:44:27;;;;;;;;;;;18.60;99.90;;;;;;5023961;28;20019;-68
2022/09/25 16:47:06;;;;;;;;;;;18.30;99.90;;;;;;5020194;28;19965;-68
2022/09/25 16:49:33;;;;;;;;;;;18.10;99.90;;;;;;5019936;28;19964;-73
2022/09/25 16:52:04;;;;;;;;;;;17.70;99.90;;;;;;5021534;28;19925;-70
2022/09/25 16:54:31;;;;;;;;;;;17.50;99.90;;;;;;5021928;28;19932;-71
2022/09/25 16:56:58;;;;;;;;;;;17.40;99.90;;;;;;5024060;28;19929;-71
2022/09/25 16:59:27;;;;;;;;;;;17.10;99.90;;;;;;5017007;28;20345;-69
2022/09/25 17:01:55;;;;;;;;;;;17.00;99.90;;;;;;5024325;28;19925;-67
2022/09/25 17:04:23;;;;;;;;;;;16.90;99.90;;;;;;5027624;28;20324;-73
2022/09/25 17:06:49;;;;;;;;;;;16.70;99.90;;;;;;5003155;28;20443;-68
2022/09/25 17:09:18;;;;;;;;;;;16.60;99.90;;;;;;4992755;28;19926;-69
2022/09/25 17:11:46;;;;;;;;;;;16.40;99.90;;;;;;5002790;28;19926;-69
2022/09/25 17:14:19;;;;;;;;;;;16.30;99.90;;;;;;4995921;28;19925;-68
2022/09/25 17:16:46;;;;;;;;;;;16.20;99.90;;;;;;5005828;28;19925;-69
2022/09/25 17:19:15;;;;;;;;;;;16.10;99.90;;;;;;5012106;28;19979;-70
2022/09/25 17:21:41;;;;;;;;;;;15.90;99.90;;;;;;5012391;28;19933;-69
2022/09/25 17:24:10;;;;;;;;;;;15.80;99.90;;;;;;5008361;28;19934;-69
2022/09/25 17:26:39;;;;;;;;;;;15.70;99.90;;;;;;5028772;28;19980;-69
2022/09/25 17:29:06;;;;;;;;;;;15.60;99.90;;;;;;5028823;28;19926;-70
2022/09/25 17:31:32;;;;;;;;;;;15.40;99.90;;;;;;5012492;28;19929;-67
2022/09/25 17:33:59;;;;;;;;;;;15.30;99.90;;;;;;4996044;28;19934;-71
2022/09/25 17:36:26;;;;;;;;;;;15.20;99.90;;;;;;4992715;28;20356;-67
2022/09/25 17:38:53;;;;;;;;;;;15.10;99.90;;;;;;4992296;28;20400;-68
2022/09/25 17:41:21;;;;;;;;;;;15.00;99.90;;;;;;4992405;28;19926;-68
2022/09/25 17:43:49;;;;;;;;;;;14.90;99.90;;;;;;4992066;28;19925;-68
2022/09/25 17:46:17;;;;;;;;;;;14.80;99.90;;;;;;4992112;28;19930;-69
2022/09/25 17:48:44;;;;;;;;;;;14.70;99.90;;;;;;5005622;28;19953;-68
2022/09/25 17:51:13;;;;;;;;;;;14.60;99.90;;;;;;5011442;28;19925;-68
2022/09/25 17:53:39;;;;;;;;;;;14.50;99.90;;;;;;5011043;28;20435;-68